createdAt,value
2024-01-25T00:01:58.527Z,14.55
2024-01-25T00:04:25.763Z,13.60
2024-01-25T00:06:53.153Z,14.98
2024-01-25T00:09:20.231Z,15.23
2024-01-25T00:11:47.733Z,14.45
2024-01-25T00:14:15.662Z,17.05
2024-01-25T00:16:43.405Z,14.25
2024-01-25T00:19:11.130Z,15.05
2024-01-25T00:21:45.047Z,15.82
2024-01-25T00:24:15.591Z,16.13
2024-01-25T00:26:42.731Z,15.90
2024-01-25T00:29:09.863Z,14.43
2024-01-25T00:31:36.884Z,15.50
2024-01-25T00:34:05.052Z,14.75
2024-01-25T00:36:32.589Z,16.15
2024-01-25T00:39:00.067Z,16.42
2024-01-25T00:41:28.732Z,15.57
2024-01-25T00:43:56.119Z,16.13
2024-01-25T00:46:23.522Z,15.25
2024-01-25T00:48:51.260Z,15.35
2024-01-25T00:51:24.318Z,16.63
2024-01-25T00:53:52.203Z,16.00
2024-01-25T00:56:19.671Z,14.55
2024-01-25T00:58:47.768Z,17.05
2024-01-25T01:01:15.223Z,16.73
2024-01-25T01:03:42.969Z,14.75
2024-01-25T01:06:11.125Z,15.25
2024-01-25T01:08:38.790Z,16.38
2024-01-25T01:11:06.511Z,13.57
2024-01-25T01:13:34.128Z,15.57
2024-01-25T01:16:01.327Z,15.73
2024-01-25T01:18:28.723Z,14.43
2024-01-25T01:20:56.223Z,14.70
2024-01-25T01:23:23.333Z,16.65
2024-01-25T01:25:50.525Z,16.55
2024-01-25T01:28:18.385Z,18.17
2024-01-25T01:30:47.120Z,15.27
2024-01-25T01:33:14.699Z,15.75
2024-01-25T01:35:42.108Z,15.88
2024-01-25T01:38:09.165Z,13.02
2024-01-25T01:40:36.642Z,14.95
2024-01-25T01:43:04.776Z,15.40
2024-01-25T01:45:32.013Z,14.50
2024-01-25T01:48:01.326Z,13.90
2024-01-25T01:50:29.366Z,17.10
2024-01-25T01:52:56.626Z,12.60
2024-01-25T01:55:24.801Z,13.55
2024-01-25T01:57:52.978Z,16.02
2024-01-25T02:00:22.255Z,13.80
2024-01-25T02:02:49.639Z,14.80
2024-01-25T02:05:17.402Z,15.05
2024-01-25T02:07:44.815Z,14.70
2024-01-25T02:10:12.891Z,13.65
2024-01-25T02:12:40.347Z,13.65
2024-01-25T02:15:07.835Z,14.20
2024-01-25T02:17:35.578Z,14.55
2024-01-25T02:20:04.787Z,15.20
2024-01-25T02:22:31.946Z,15.52
2024-01-25T02:24:59.199Z,14.32
2024-01-25T02:27:26.488Z,14.57
2024-01-25T02:29:53.976Z,13.68
2024-01-25T02:32:21.593Z,13.65
2024-01-25T02:34:48.882Z,13.23
2024-01-25T02:37:16.464Z,14.95
2024-01-25T02:39:44.639Z,14.45
2024-01-25T02:42:12.257Z,14.32
2024-01-25T02:44:39.579Z,13.13
2024-01-25T02:47:06.762Z,16.23
2024-01-25T02:49:34.017Z,14.63
2024-01-25T02:52:01.938Z,13.73
2024-01-25T02:54:28.966Z,13.25
2024-01-25T02:56:56.034Z,14.02
2024-01-25T02:59:23.382Z,12.20
2024-01-25T03:01:50.615Z,14.40
2024-01-25T03:04:18.676Z,13.15
2024-01-25T03:06:46.436Z,13.02
2024-01-25T03:09:14.391Z,12.25
2024-01-25T03:11:41.841Z,13.90
2024-01-25T03:14:09.031Z,12.73
2024-01-25T03:16:36.136Z,11.43
2024-01-25T03:19:03.973Z,11.95
2024-01-25T03:21:31.271Z,12.77
2024-01-25T03:23:58.505Z,12.88
2024-01-25T03:26:28.097Z,10.98
2024-01-25T03:28:55.497Z,11.65
2024-01-25T03:31:22.561Z,11.93
2024-01-25T03:33:49.927Z,11.98
2024-01-25T03:36:17.380Z,11.60
2024-01-25T03:38:44.961Z,10.38
2024-01-25T03:41:12.179Z,11.57
2024-01-25T03:43:44.028Z,13.35
2024-01-25T03:46:15.702Z,10.48
2024-01-25T03:48:43.660Z,11.35
2024-01-25T03:51:11.176Z,10.48
2024-01-25T03:53:38.396Z,11.05
2024-01-25T03:56:11.592Z,12.23
2024-01-25T03:58:39.562Z,12.20
2024-01-25T04:01:07.254Z,11.02
2024-01-25T04:03:34.522Z,12.75
2024-01-25T04:06:01.864Z,12.70
2024-01-25T04:08:28.961Z,12.10
2024-01-25T04:10:56.038Z,12.27
2024-01-25T04:13:23.587Z,12.43
2024-01-25T04:15:50.727Z,12.88
2024-01-25T04:18:18.255Z,13.13
2024-01-25T04:20:46.007Z,12.45
2024-01-25T04:23:13.172Z,11.63
2024-01-25T04:25:40.420Z,13.05
2024-01-25T04:28:07.989Z,12.38
2024-01-25T04:30:35.148Z,15.68
2024-01-25T04:33:03.555Z,12.85
2024-01-25T04:35:33.349Z,13.05
2024-01-25T04:38:00.984Z,12.80
2024-01-25T04:40:28.330Z,11.50
2024-01-25T04:42:55.581Z,11.75
2024-01-25T04:45:22.897Z,11.88
2024-01-25T04:47:50.288Z,12.38
2024-01-25T04:50:18.004Z,10.93
2024-01-25T04:52:45.545Z,11.02
2024-01-25T04:55:12.688Z,10.75
2024-01-25T04:57:39.964Z,11.20
2024-01-25T05:00:08.195Z,11.73
2024-01-25T05:02:35.328Z,11.25
2024-01-25T05:05:02.751Z,13.05
2024-01-25T05:07:31.023Z,11.15
2024-01-25T05:09:58.654Z,13.20
2024-01-25T05:12:25.849Z,10.45
2024-01-25T05:14:53.280Z,10.57
2024-01-25T05:17:20.372Z,13.05
2024-01-25T05:19:47.720Z,12.02
2024-01-25T05:22:15.168Z,13.00
2024-01-25T05:24:42.518Z,11.95
2024-01-25T05:27:10.340Z,13.25
2024-01-25T05:29:37.462Z,11.93
2024-01-25T05:32:04.804Z,12.23
2024-01-25T05:34:32.497Z,13.05
2024-01-25T05:36:59.976Z,14.00
2024-01-25T05:39:27.216Z,12.38
2024-01-25T05:41:54.272Z,13.43
2024-01-25T05:44:21.878Z,15.00
2024-01-25T05:46:49.144Z,12.43
2024-01-25T05:49:16.663Z,11.93
2024-01-25T05:51:44.304Z,11.68
2024-01-25T05:54:11.841Z,13.27
2024-01-25T05:56:38.897Z,13.52
2024-01-25T05:59:06.458Z,12.20
2024-01-25T06:01:33.692Z,13.18
2024-01-25T06:04:01.142Z,20.77
2024-01-25T06:06:28.968Z,11.60
2024-01-25T06:09:02.570Z,12.93
2024-01-25T06:11:39.382Z,13.75
2024-01-25T06:14:07.507Z,10.65
2024-01-25T06:16:35.045Z,10.98
2024-01-25T06:19:04.281Z,10.95
2024-01-25T06:21:31.602Z,12.35
2024-01-25T06:23:58.899Z,11.75
2024-01-25T06:26:26.085Z,11.75
2024-01-25T06:28:53.244Z,10.07
2024-01-25T06:31:20.605Z,10.48
2024-01-25T06:33:52.280Z,10.73
2024-01-25T06:36:23.272Z,10.15
2024-01-25T06:38:50.914Z,10.57
2024-01-25T06:41:18.463Z,11.15
2024-01-25T06:43:45.848Z,10.52
2024-01-25T06:46:13.154Z,9.23
2024-01-25T06:48:40.505Z,9.48
2024-01-25T06:51:08.122Z,9.20
2024-01-25T06:53:35.608Z,8.82
2024-01-25T06:56:03.715Z,10.38
2024-01-25T06:58:31.209Z,14.32
2024-01-25T07:00:59.016Z,10.98
2024-01-25T07:03:27.147Z,9.98
2024-01-25T07:05:54.829Z,9.98
2024-01-25T07:08:22.865Z,11.73
2024-01-25T07:10:50.075Z,11.15
2024-01-25T07:13:17.910Z,11.32
2024-01-25T07:15:45.277Z,12.55
2024-01-25T07:18:12.773Z,11.98
2024-01-25T07:20:40.268Z,11.70
2024-01-25T07:23:07.526Z,13.18
2024-01-25T07:25:35.485Z,11.20
2024-01-25T07:28:02.756Z,12.30
2024-01-25T07:30:30.235Z,10.65
2024-01-25T07:32:57.582Z,7.88
2024-01-25T07:35:25.591Z,10.57
2024-01-25T07:37:53.086Z,13.68
2024-01-25T07:40:20.551Z,10.93
2024-01-25T07:42:48.703Z,12.50
2024-01-25T07:45:16.143Z,10.10
2024-01-25T07:47:44.081Z,9.55
2024-01-25T07:50:11.975Z,9.70
2024-01-25T07:52:39.875Z,8.93
2024-01-25T07:55:07.641Z,13.55
2024-01-25T07:57:34.924Z,12.35
2024-01-25T08:00:02.258Z,13.05
2024-01-25T08:02:32.295Z,12.68
2024-01-25T08:05:00.004Z,11.25
2024-01-25T08:07:27.277Z,11.85
2024-01-25T08:09:54.761Z,9.70
2024-01-25T08:12:22.269Z,10.23
2024-01-25T08:14:49.574Z,10.18
2024-01-25T08:17:16.885Z,10.02
2024-01-25T08:19:44.224Z,9.82
2024-01-25T08:22:11.981Z,11.23
2024-01-25T08:24:41.302Z,13.57
2024-01-25T08:27:14.441Z,11.02
2024-01-25T08:29:43.496Z,10.05
2024-01-25T08:32:10.598Z,10.63
2024-01-25T08:34:38.082Z,14.40
2024-01-25T08:37:05.567Z,10.57
2024-01-25T08:39:32.800Z,12.05
2024-01-25T08:42:03.750Z,11.20
2024-01-25T08:44:31.088Z,11.93
2024-01-25T08:46:58.555Z,10.77
2024-01-25T08:49:26.288Z,13.35
2024-01-25T08:51:53.577Z,11.35
2024-01-25T08:54:21.219Z,25.38
2024-01-25T08:56:48.776Z,16.33
2024-01-25T08:59:15.994Z,13.30
2024-01-25T09:01:43.227Z,13.25
2024-01-25T09:04:10.488Z,12.57
2024-01-25T09:06:38.083Z,13.80
2024-01-25T09:09:05.550Z,12.90
2024-01-25T09:11:32.611Z,13.63
2024-01-25T09:13:59.782Z,12.13
2024-01-25T09:16:27.103Z,11.82
2024-01-25T09:18:54.715Z,13.10
2024-01-25T09:21:22.372Z,12.18
2024-01-25T09:23:50.069Z,15.85
2024-01-25T09:26:17.243Z,15.70
2024-01-25T09:28:45.264Z,16.17
2024-01-25T09:31:12.613Z,13.50
2024-01-25T09:33:39.923Z,11.45
2024-01-25T09:36:08.464Z,12.35
2024-01-25T09:38:35.633Z,14.20
2024-01-25T09:41:03.214Z,14.00
2024-01-25T09:43:32.440Z,13.55
2024-01-25T09:46:01.782Z,12.60
2024-01-25T09:48:29.682Z,12.02
2024-01-25T09:50:57.748Z,13.60
2024-01-25T09:53:26.255Z,13.32
2024-01-25T09:56:03.217Z,14.80
2024-01-25T09:58:40.048Z,12.77
2024-01-25T10:01:14.854Z,13.35
2024-01-25T10:03:48.859Z,14.98
2024-01-25T10:06:17.966Z,12.32
2024-01-25T10:08:45.524Z,12.88
2024-01-25T10:11:16.438Z,14.35
2024-01-25T10:13:44.982Z,12.13
2024-01-25T10:16:16.325Z,14.15
2024-01-25T10:18:45.474Z,11.63
2024-01-25T10:21:15.639Z,11.35
2024-01-25T10:23:51.152Z,13.98
2024-01-25T10:26:19.184Z,13.02
2024-01-25T10:28:59.111Z,10.68
2024-01-25T10:31:31.005Z,11.45
2024-01-25T10:34:01.521Z,11.70
2024-01-25T10:36:29.266Z,11.55
2024-01-25T10:38:58.784Z,12.82
2024-01-25T10:41:28.406Z,11.82
2024-01-25T10:43:56.913Z,10.35
2024-01-25T10:46:25.206Z,11.02
2024-01-25T10:48:53.854Z,10.05
2024-01-25T10:51:22.430Z,12.52
2024-01-25T10:53:50.128Z,11.02
2024-01-25T10:56:18.095Z,9.77
2024-01-25T10:58:45.512Z,10.25
2024-01-25T11:01:15.645Z,9.82
2024-01-25T11:03:47.420Z,11.70
2024-01-25T11:06:15.518Z,11.35
2024-01-25T11:08:43.505Z,11.95
2024-01-25T11:11:14.240Z,8.88
2024-01-25T11:13:43.931Z,9.20
2024-01-25T11:16:16.232Z,9.23
2024-01-25T11:18:57.475Z,9.75
2024-01-25T11:21:28.566Z,10.05
2024-01-25T11:24:03.489Z,8.23
2024-01-25T11:26:33.625Z,12.18
2024-01-25T11:29:03.697Z,10.15
2024-01-25T11:31:31.557Z,10.93
2024-01-25T11:34:03.159Z,8.75
2024-01-25T11:36:30.652Z,7.75
2024-01-25T11:38:59.292Z,9.20
2024-01-25T11:41:27.216Z,8.77
2024-01-25T11:43:54.846Z,8.07
2024-01-25T11:46:22.815Z,8.85
2024-01-25T11:48:51.023Z,7.68
2024-01-25T11:51:18.996Z,7.57
2024-01-25T11:53:46.211Z,9.95
2024-01-25T11:56:21.232Z,9.15
2024-01-25T11:58:49.204Z,8.13
2024-01-25T12:01:17.825Z,7.60
2024-01-25T12:03:45.242Z,8.27
2024-01-25T12:06:14.104Z,7.75
2024-01-25T12:08:42.602Z,8.75
2024-01-25T12:11:10.908Z,8.82
2024-01-25T12:13:41.825Z,7.72
2024-01-25T12:16:10.860Z,7.15
2024-01-25T12:18:43.454Z,9.18
2024-01-25T12:21:10.752Z,7.07
2024-01-25T12:23:42.178Z,9.18
2024-01-25T12:26:13.318Z,8.30
2024-01-25T12:28:40.700Z,8.30
2024-01-25T12:31:10.793Z,7.18
2024-01-25T12:33:38.560Z,8.52
2024-01-25T12:36:06.706Z,9.07
2024-01-25T12:38:36.518Z,8.43
2024-01-25T12:41:04.671Z,7.75
2024-01-25T12:43:32.792Z,8.15
2024-01-25T12:46:09.462Z,7.45
2024-01-25T12:48:46.539Z,12.43
2024-01-25T12:51:16.717Z,7.82
2024-01-25T12:53:44.268Z,7.75
2024-01-25T12:56:12.339Z,6.88
2024-01-25T12:58:41.472Z,6.95
2024-01-25T13:01:10.726Z,7.50
2024-01-25T13:03:39.797Z,6.93
2024-01-25T13:06:07.876Z,8.02
2024-01-25T13:08:35.144Z,6.47
2024-01-25T13:11:02.461Z,6.95
2024-01-25T13:13:29.791Z,7.45
2024-01-25T13:16:02.339Z,6.28
2024-01-25T13:18:30.115Z,6.50
2024-01-25T13:20:57.504Z,39.60
2024-01-25T13:23:24.740Z,21.50
2024-01-25T13:25:51.970Z,14.93
2024-01-25T13:28:22.700Z,14.93
2024-01-25T13:30:50.331Z,11.68
2024-01-25T13:33:17.906Z,11.10
2024-01-25T13:35:45.247Z,9.68
2024-01-25T13:38:15.951Z,9.32
2024-01-25T13:40:44.323Z,9.43
2024-01-25T13:43:12.476Z,8.98
2024-01-25T13:45:40.303Z,8.73
2024-01-25T13:48:08.059Z,8.88
2024-01-25T13:50:35.275Z,8.70
2024-01-25T13:53:02.449Z,8.60
2024-01-25T13:55:29.717Z,8.55
2024-01-25T13:57:56.829Z,8.13
2024-01-25T14:00:24.301Z,9.15
2024-01-25T14:02:51.779Z,9.18
2024-01-25T14:05:19.453Z,7.90
2024-01-25T14:07:46.630Z,7.65
2024-01-25T14:10:14.840Z,9.93
2024-01-25T14:12:42.292Z,7.50
2024-01-25T14:15:09.715Z,6.85
2024-01-25T14:17:38.477Z,10.45
2024-01-25T14:20:06.981Z,8.27
2024-01-25T14:22:36.415Z,7.38
2024-01-25T14:25:05.424Z,7.88
2024-01-25T14:27:34.404Z,6.70
2024-01-25T14:30:01.908Z,6.43
2024-01-25T14:32:29.400Z,6.43
2024-01-25T14:34:56.855Z,7.57
2024-01-25T14:37:23.857Z,6.82
2024-01-25T14:40:02.854Z,6.15
2024-01-25T14:42:40.255Z,6.65
2024-01-25T14:45:07.999Z,6.75
2024-01-25T14:47:35.118Z,6.82
2024-01-25T14:50:02.174Z,6.57
2024-01-25T14:52:29.489Z,6.78
2024-01-25T14:54:56.778Z,6.88
2024-01-25T14:57:23.980Z,5.07
2024-01-25T14:59:51.216Z,6.53
2024-01-25T15:02:18.820Z,8.00
2024-01-25T15:04:46.358Z,6.20
2024-01-25T15:07:13.954Z,6.57
2024-01-25T15:09:41.384Z,7.53
2024-01-25T15:12:09.880Z,8.48
2024-01-25T15:14:37.093Z,6.38
2024-01-25T15:17:04.842Z,6.40
2024-01-25T15:19:31.978Z,6.63
2024-01-25T15:21:59.550Z,6.57
2024-01-25T15:24:28.127Z,6.43
2024-01-25T15:26:55.228Z,6.20
2024-01-25T15:29:22.435Z,6.05
2024-01-25T15:31:49.576Z,7.95
2024-01-25T15:34:17.466Z,7.53
2024-01-25T15:36:45.980Z,7.05
2024-01-25T15:39:13.211Z,6.70
2024-01-25T15:41:40.336Z,7.28
2024-01-25T15:44:07.907Z,6.93
2024-01-25T15:46:35.117Z,6.85
2024-01-25T15:49:02.933Z,7.43
2024-01-25T15:51:30.514Z,8.77
2024-01-25T15:53:58.181Z,6.88
2024-01-25T15:56:25.645Z,7.15
2024-01-25T15:58:54.998Z,6.88
2024-01-25T16:01:22.695Z,9.02
2024-01-25T16:03:50.159Z,7.03
2024-01-25T16:06:18.740Z,7.55
2024-01-25T16:08:46.247Z,7.97
2024-01-25T16:11:14.181Z,7.57
2024-01-25T16:13:43.804Z,7.25
2024-01-25T16:16:12.519Z,8.30
2024-01-25T16:18:39.760Z,7.20
2024-01-25T16:21:07.262Z,7.38
2024-01-25T16:23:34.398Z,7.55
2024-01-25T16:26:01.911Z,7.10
2024-01-25T16:28:29.801Z,9.82
2024-01-25T16:30:57.555Z,7.13
2024-01-25T16:33:25.577Z,8.02
2024-01-25T16:35:53.287Z,8.48
2024-01-25T16:38:20.604Z,8.75
2024-01-25T16:40:47.773Z,9.50
2024-01-25T16:43:16.859Z,6.95
2024-01-25T16:45:45.640Z,8.48
2024-01-25T16:48:15.546Z,8.80
2024-01-25T16:50:43.781Z,7.97
2024-01-25T16:53:10.976Z,9.18
2024-01-25T16:55:38.422Z,8.25
2024-01-25T16:58:05.591Z,8.23
2024-01-25T17:00:34.182Z,8.60
2024-01-25T17:03:01.596Z,7.97
2024-01-25T17:05:28.660Z,9.07
2024-01-25T17:07:55.977Z,10.23
2024-01-25T17:10:23.035Z,9.90
2024-01-25T17:12:50.363Z,9.60
2024-01-25T17:15:17.787Z,9.57
2024-01-25T17:17:44.849Z,9.75
2024-01-25T17:20:13.511Z,10.50
2024-01-25T17:22:40.791Z,9.57
2024-01-25T17:25:08.454Z,11.93
2024-01-25T17:27:35.673Z,10.45
2024-01-25T17:30:03.390Z,11.80
2024-01-25T17:32:30.520Z,10.73
2024-01-25T17:34:57.813Z,8.95
2024-01-25T17:37:25.057Z,11.13
2024-01-25T17:39:52.351Z,9.38
2024-01-25T17:42:19.567Z,10.13
2024-01-25T17:44:46.900Z,10.27
2024-01-25T17:47:13.951Z,9.80
2024-01-25T17:49:41.165Z,10.85
2024-01-25T17:52:10.727Z,9.48
2024-01-25T17:54:40.114Z,11.07
2024-01-25T17:57:07.883Z,11.77
2024-01-25T17:59:34.843Z,12.48
2024-01-25T18:02:06.056Z,10.80
2024-01-25T18:04:36.664Z,10.75
2024-01-25T18:07:04.063Z,10.18
2024-01-25T18:09:31.461Z,10.82
2024-01-25T18:11:59.045Z,9.85
2024-01-25T18:14:27.160Z,10.07
2024-01-25T18:16:54.441Z,10.55
2024-01-25T18:19:24.731Z,10.75
2024-01-25T18:21:52.851Z,10.10
2024-01-25T18:24:20.391Z,10.60
2024-01-25T18:26:48.447Z,11.05
2024-01-25T18:29:16.176Z,10.40
2024-01-25T18:31:43.147Z,9.85
2024-01-25T18:34:10.454Z,11.77
2024-01-25T18:36:38.993Z,11.43
2024-01-25T18:39:06.694Z,12.15
2024-01-25T18:41:35.347Z,10.82
2024-01-25T18:44:03.377Z,11.15
2024-01-25T18:46:31.747Z,11.95
2024-01-25T18:48:59.425Z,10.43
2024-01-25T18:51:27.203Z,9.77
2024-01-25T18:53:55.444Z,12.25
2024-01-25T18:56:27.235Z,13.13
2024-01-25T18:58:57.335Z,11.48
2024-01-25T19:01:25.614Z,10.88
2024-01-25T19:03:53.764Z,12.02
2024-01-25T19:06:21.791Z,11.02
2024-01-25T19:08:52.487Z,12.13
2024-01-25T19:11:20.095Z,12.77
2024-01-25T19:13:47.210Z,13.27
2024-01-25T19:16:14.865Z,12.40
2024-01-25T19:18:42.550Z,13.57
2024-01-25T19:21:10.315Z,11.38
2024-01-25T19:23:38.259Z,13.85
2024-01-25T19:26:05.768Z,14.15
2024-01-25T19:28:33.568Z,14.30
2024-01-25T19:31:00.884Z,13.27
2024-01-25T19:33:31.644Z,12.60
2024-01-25T19:35:58.920Z,11.18
2024-01-25T19:38:26.212Z,14.02
2024-01-25T19:40:53.414Z,14.55
2024-01-25T19:43:20.776Z,12.32
2024-01-25T19:45:50.169Z,14.07
2024-01-25T19:48:17.926Z,13.13
2024-01-25T19:50:45.559Z,14.18
2024-01-25T19:53:13.123Z,14.60
2024-01-25T19:55:40.274Z,14.00
2024-01-25T19:58:07.649Z,15.90
2024-01-25T20:00:35.151Z,15.65
2024-01-25T20:03:03.173Z,13.95
2024-01-25T20:05:32.775Z,14.60
2024-01-25T20:08:01.947Z,12.48
2024-01-25T20:10:29.593Z,13.73
2024-01-25T20:12:58.742Z,12.38
2024-01-25T20:15:26.550Z,11.77
2024-01-25T20:17:54.715Z,14.50
2024-01-25T20:20:31.029Z,12.27
2024-01-25T20:23:06.736Z,13.07
2024-01-25T20:25:34.546Z,13.25
2024-01-25T20:28:01.598Z,12.43
2024-01-25T20:30:29.992Z,16.98
2024-01-25T20:32:57.691Z,14.93
2024-01-25T20:35:25.261Z,12.02
2024-01-25T20:37:53.125Z,12.57
2024-01-25T20:40:20.412Z,15.15
2024-01-25T20:42:47.894Z,13.80
2024-01-25T20:45:15.227Z,12.80
2024-01-25T20:47:43.225Z,13.15
2024-01-25T20:50:16.968Z,13.13
2024-01-25T20:52:47.156Z,13.68
2024-01-25T20:55:14.796Z,13.57
2024-01-25T20:57:41.941Z,14.85
2024-01-25T21:00:10.870Z,12.25
2024-01-25T21:02:38.966Z,14.57
2024-01-25T21:05:06.990Z,14.57
2024-01-25T21:07:34.369Z,16.58
2024-01-25T21:10:01.949Z,15.80
2024-01-25T21:12:29.634Z,14.77
2024-01-25T21:14:57.043Z,14.25
2024-01-25T21:17:24.440Z,17.23
2024-01-25T21:19:51.609Z,16.05
2024-01-25T21:22:19.177Z,17.60
2024-01-25T21:24:46.451Z,18.23
2024-01-25T21:27:13.473Z,16.73
2024-01-25T21:29:40.612Z,17.83
2024-01-25T21:32:07.874Z,17.52
2024-01-25T21:34:35.488Z,17.58
2024-01-25T21:37:02.768Z,17.83
2024-01-25T21:39:30.102Z,17.15
2024-01-25T21:41:57.199Z,17.65
2024-01-25T21:44:24.394Z,17.33
2024-01-25T21:46:52.135Z,19.10
2024-01-25T21:49:20.216Z,17.52
2024-01-25T21:51:47.880Z,18.25
2024-01-25T21:54:15.624Z,15.88
2024-01-25T21:56:42.960Z,19.08
2024-01-25T21:59:10.073Z,16.77
2024-01-25T22:01:38.568Z,17.63
2024-01-25T22:04:06.155Z,18.73
2024-01-25T22:06:33.957Z,17.70
2024-01-25T22:09:11.887Z,16.90
2024-01-25T22:11:39.050Z,20.23
2024-01-25T22:14:06.130Z,18.33
2024-01-25T22:16:33.251Z,16.50
2024-01-25T22:19:00.604Z,15.43
2024-01-25T22:21:28.427Z,15.60
2024-01-25T22:23:55.462Z,16.40
2024-01-25T22:26:22.593Z,17.77
2024-01-25T22:28:49.717Z,17.90
2024-01-25T22:31:17.264Z,17.63
2024-01-25T22:33:44.657Z,16.90
2024-01-25T22:36:12.198Z,17.60
2024-01-25T22:38:39.734Z,18.00
2024-01-25T22:41:07.370Z,15.88
2024-01-25T22:43:34.879Z,17.73
2024-01-25T22:46:02.181Z,16.80
2024-01-25T22:48:29.752Z,17.17
2024-01-25T22:51:02.549Z,15.23
2024-01-25T22:53:33.465Z,16.92
2024-01-25T22:56:01.032Z,15.50
2024-01-25T22:58:28.903Z,15.43
2024-01-25T23:00:56.794Z,14.52
2024-01-25T23:03:24.331Z,13.30
2024-01-25T23:05:51.900Z,14.13
2024-01-25T23:08:19.301Z,13.70
2024-01-25T23:10:46.882Z,12.95
2024-01-25T23:13:15.054Z,13.90
2024-01-25T23:15:42.709Z,16.70
2024-01-25T23:18:11.731Z,13.32
2024-01-25T23:20:39.019Z,13.77
2024-01-25T23:23:06.258Z,11.55
2024-01-25T23:25:33.522Z,11.70
2024-01-25T23:28:00.784Z,14.60
2024-01-25T23:30:28.001Z,12.45
2024-01-25T23:32:56.001Z,12.35
2024-01-25T23:35:24.085Z,13.48
2024-01-25T23:37:51.806Z,12.77
2024-01-25T23:40:20.233Z,12.75
2024-01-25T23:42:48.159Z,11.93
2024-01-25T23:45:16.315Z,12.55
2024-01-25T23:47:44.168Z,12.13
2024-01-25T23:50:12.396Z,11.98
2024-01-25T23:52:40.141Z,10.70
2024-01-25T23:55:08.451Z,10.13
2024-01-25T23:57:36.225Z,10.80
